sensor_id;sensor_type;location;lat;lon;timestamp;pressure;altitude;pressure_sealevel;temperature;humidity
81913;BME280;71377;50.698;7.164;2024-03-07T00:00:12;101755.03;;;6.44;88.91
81913;BME280;71377;50.698;7.164;2024-03-07T00:02:45;101748.91;;;6.42;88.42
81913;BME280;71377;50.698;7.164;2024-03-07T00:05:19;101756.75;;;6.30;90.63
81913;BME280;71377;50.698;7.164;2024-03-07T00:07:46;101754.13;;;6.24;89.61
81913;BME280;71377;50.698;7.164;2024-03-07T00:10:13;101753.28;;;6.36;89.80
81913;BME280;71377;50.698;7.164;2024-03-07T00:12:41;101759.38;;;6.27;89.71
81913;BME280;71377;50.698;7.164;2024-03-07T00:15:10;101757.63;;;6.26;90.62
81913;BME280;71377;50.698;7.164;2024-03-07T00:17:37;101755.88;;;6.25;90.50
81913;BME280;71377;50.698;7.164;2024-03-07T00:20:05;101754.16;;;6.21;90.50
81913;BME280;71377;50.698;7.164;2024-03-07T00:22:35;101758.50;;;6.08;90.33
81913;BME280;71377;50.698;7.164;2024-03-07T00:25:02;101761.97;;;6.19;90.04
81913;BME280;71377;50.698;7.164;2024-03-07T00:27:32;101757.63;;;6.26;90.00
81913;BME280;71377;50.698;7.164;2024-03-07T00:30:02;101758.47;;;6.16;90.21
81913;BME280;71377;50.698;7.164;2024-03-07T00:32:31;101764.56;;;6.00;91.48
81913;BME280;71377;50.698;7.164;2024-03-07T00:35:02;101758.50;;;6.11;91.88
81913;BME280;71377;50.698;7.164;2024-03-07T00:37:31;101757.63;;;6.11;91.25
81913;BME280;71377;50.698;7.164;2024-03-07T00:39:58;101754.16;;;6.36;89.34
81913;BME280;71377;50.698;7.164;2024-03-07T00:42:24;101754.16;;;6.53;88.00
81913;BME280;71377;50.698;7.164;2024-03-07T00:44:51;101756.75;;;6.24;89.78
81913;BME280;71377;50.698;7.164;2024-03-07T00:47:17;101761.94;;;5.97;90.05
81913;BME280;71377;50.698;7.164;2024-03-07T00:49:44;101755.81;;;5.82;91.11
81913;BME280;71377;50.698;7.164;2024-03-07T00:52:14;101744.47;;;5.70;91.64
81913;BME280;71377;50.698;7.164;2024-03-07T00:54:42;101743.63;;;5.78;91.90
81913;BME280;71377;50.698;7.164;2024-03-07T00:57:08;101742.75;;;5.75;90.63
81913;BME280;71377;50.698;7.164;2024-03-07T00:59:35;101750.53;;;5.64;91.53
81913;BME280;71377;50.698;7.164;2024-03-07T01:02:01;101748.81;;;5.57;92.23
81913;BME280;71377;50.698;7.164;2024-03-07T01:04:28;101752.25;;;5.63;91.85
81913;BME280;71377;50.698;7.164;2024-03-07T01:06:57;101747.91;;;5.53;92.42
81913;BME280;71377;50.698;7.164;2024-03-07T01:09:25;101752.28;;;5.62;92.23
81913;BME280;71377;50.698;7.164;2024-03-07T01:11:51;101751.38;;;5.54;91.76
81913;BME280;71377;50.698;7.164;2024-03-07T01:14:17;101740.91;;;5.43;93.16
81913;BME280;71377;50.698;7.164;2024-03-07T01:16:44;101748.78;;;5.48;94.12
81913;BME280;71377;50.698;7.164;2024-03-07T01:19:10;101740.06;;;5.55;94.10
81913;BME280;71377;50.698;7.164;2024-03-07T01:21:37;101745.25;;;5.46;93.34
81913;BME280;71377;50.698;7.164;2024-03-07T01:24:05;101745.22;;;5.38;93.50
81913;BME280;71377;50.698;7.164;2024-03-07T01:26:32;101741.75;;;5.37;94.11
81913;BME280;71377;50.698;7.164;2024-03-07T01:29:00;101743.44;;;5.20;93.35
81913;BME280;71377;50.698;7.164;2024-03-07T01:31:26;101739.09;;;5.19;94.88
81913;BME280;71377;50.698;7.164;2024-03-07T01:33:53;101733.09;;;5.40;94.26
81913;BME280;71377;50.698;7.164;2024-03-07T01:36:20;101728.72;;;5.37;93.70
81913;BME280;71377;50.698;7.164;2024-03-07T01:38:47;101731.28;;;5.21;94.30
81913;BME280;71377;50.698;7.164;2024-03-07T01:41:14;101730.38;;;5.09;93.92
81913;BME280;71377;50.698;7.164;2024-03-07T01:43:41;101719.13;;;5.15;94.37
81913;BME280;71377;50.698;7.164;2024-03-07T01:46:08;101724.28;;;5.09;94.69
81913;BME280;71377;50.698;7.164;2024-03-07T01:48:37;101715.56;;;4.98;95.21
81913;BME280;71377;50.698;7.164;2024-03-07T01:51:04;101719.03;;;5.00;96.16
81913;BME280;71377;50.698;7.164;2024-03-07T01:53:31;101710.31;;;4.95;95.68
81913;BME280;71377;50.698;7.164;2024-03-07T01:55:59;101709.44;;;4.93;95.53
81913;BME280;71377;50.698;7.164;2024-03-07T01:58:26;101713.78;;;4.88;95.00
81913;BME280;71377;50.698;7.164;2024-03-07T02:00:53;101710.28;;;4.86;94.70
81913;BME280;71377;50.698;7.164;2024-03-07T02:03:19;101707.78;;;5.08;94.76
81913;BME280;71377;50.698;7.164;2024-03-07T02:05:46;101707.72;;;4.93;94.19
81913;BME280;71377;50.698;7.164;2024-03-07T02:08:12;101701.59;;;4.83;93.67
81913;BME280;71377;50.698;7.164;2024-03-07T02:10:41;101707.66;;;4.78;93.91
81913;BME280;71377;50.698;7.164;2024-03-07T02:13:08;101703.28;;;4.72;94.06
81913;BME280;71377;50.698;7.164;2024-03-07T02:15:34;101701.53;;;4.73;94.00
81913;BME280;71377;50.698;7.164;2024-03-07T02:18:01;101699.81;;;4.70;94.36
81913;BME280;71377;50.698;7.164;2024-03-07T02:20:27;101699.81;;;4.76;94.91
81913;BME280;71377;50.698;7.164;2024-03-07T02:22:55;101699.03;;;4.88;94.74
81913;BME280;71377;50.698;7.164;2024-03-07T02:25:22;101693.78;;;4.79;95.38
81913;BME280;71377;50.698;7.164;2024-03-07T02:27:48;101693.78;;;4.80;94.96
81913;BME280;71377;50.698;7.164;2024-03-07T02:30:14;101694.59;;;4.76;95.30
81913;BME280;71377;50.698;7.164;2024-03-07T02:32:41;101689.34;;;4.64;94.64
81913;BME280;71377;50.698;7.164;2024-03-07T02:35:08;101682.41;;;4.63;95.20
81913;BME280;71377;50.698;7.164;2024-03-07T02:37:34;101689.34;;;4.61;94.45
81913;BME280;71377;50.698;7.164;2024-03-07T02:40:01;101689.31;;;4.57;94.80
81913;BME280;71377;50.698;7.164;2024-03-07T02:42:27;101694.50;;;4.57;94.58
81913;BME280;71377;50.698;7.164;2024-03-07T02:44:54;101692.75;;;4.54;95.37
81913;BME280;71377;50.698;7.164;2024-03-07T02:47:23;101686.59;;;4.43;95.72
81913;BME280;71377;50.698;7.164;2024-03-07T02:49:50;101694.38;;;4.38;96.08
81913;BME280;71377;50.698;7.164;2024-03-07T02:52:16;101684.84;;;4.37;96.44
81913;BME280;71377;50.698;7.164;2024-03-07T02:54:43;101684.91;;;4.49;95.40
81913;BME280;71377;50.698;7.164;2024-03-07T02:57:09;101686.53;;;4.31;96.26
81913;BME280;71377;50.698;7.164;2024-03-07T02:59:37;101683.00;;;4.24;95.98
81913;BME280;71377;50.698;7.164;2024-03-07T03:02:04;101688.19;;;4.18;95.58
81913;BME280;71377;50.698;7.164;2024-03-07T03:04:32;101683.78;;;4.14;96.65
81913;BME280;71377;50.698;7.164;2024-03-07T03:06:59;101670.84;;;4.20;96.14
81913;BME280;71377;50.698;7.164;2024-03-07T03:09:25;101679.44;;;4.11;96.11
81913;BME280;71377;50.698;7.164;2024-03-07T03:11:54;101682.19;;;4.27;95.47
81913;BME280;71377;50.698;7.164;2024-03-07T03:14:20;101676.91;;;4.17;95.43
81913;BME280;71377;50.698;7.164;2024-03-07T03:16:47;101675.97;;;4.09;96.13
81913;BME280;71377;50.698;7.164;2024-03-07T03:19:14;101675.13;;;4.13;94.97
81913;BME280;71377;50.698;7.164;2024-03-07T03:21:41;101672.50;;;4.10;95.06
81913;BME280;71377;50.698;7.164;2024-03-07T03:24:09;101669.84;;;4.04;96.18
81913;BME280;71377;50.698;7.164;2024-03-07T03:26:35;101675.91;;;4.02;96.72
81913;BME280;71377;50.698;7.164;2024-03-07T03:29:02;101672.47;;;4.04;95.82
81913;BME280;71377;50.698;7.164;2024-03-07T03:31:28;101662.13;;;4.12;95.50
81913;BME280;71377;50.698;7.164;2024-03-07T03:33:55;101655.19;;;4.17;94.87
81913;BME280;71377;50.698;7.164;2024-03-07T03:36:21;101662.88;;;3.97;94.84
81913;BME280;71377;50.698;7.164;2024-03-07T03:38:48;101662.91;;;4.00;93.76
81913;BME280;71377;50.698;7.164;2024-03-07T03:41:15;101667.03;;;3.78;96.87
81913;BME280;71377;50.698;7.164;2024-03-07T03:43:43;101664.28;;;3.61;96.94
81913;BME280;71377;50.698;7.164;2024-03-07T03:46:10;101665.31;;;3.82;98.17
81913;BME280;71377;50.698;7.164;2024-03-07T03:48:41;101655.94;;;3.97;97.34
81913;BME280;71377;50.698;7.164;2024-03-07T03:51:08;101654.19;;;3.95;96.06
81913;BME280;71377;50.698;7.164;2024-03-07T03:53:35;101653.25;;;3.85;96.74
81913;BME280;71377;50.698;7.164;2024-03-07T03:56:03;101659.25;;;3.81;96.61
81913;BME280;71377;50.698;7.164;2024-03-07T03:58:32;101664.50;;;3.83;96.93
81913;BME280;71377;50.698;7.164;2024-03-07T04:00:59;101661.00;;;3.81;97.88
81913;BME280;71377;50.698;7.164;2024-03-07T04:03:26;101660.25;;;3.95;96.53
81913;BME280;71377;50.698;7.164;2024-03-07T04:05:53;101657.66;;;3.97;95.72
81913;BME280;71377;50.698;7.164;2024-03-07T04:08:19;101654.09;;;3.83;96.43
81913;BME280;71377;50.698;7.164;2024-03-07T04:10:46;101648.75;;;3.67;96.80
81913;BME280;71377;50.698;7.164;2024-03-07T04:13:13;101652.09;;;3.54;96.19
81913;BME280;71377;50.698;7.164;2024-03-07T04:15:40;101646.09;;;3.60;98.05
81913;BME280;71377;50.698;7.164;2024-03-07T04:18:06;101643.44;;;3.55;97.66
81913;BME280;71377;50.698;7.164;2024-03-07T04:20:33;101656.56;;;3.66;96.90
81913;BME280;71377;50.698;7.164;2024-03-07T04:23:00;101652.16;;;3.63;96.70
81913;BME280;71377;50.698;7.164;2024-03-07T04:25:28;101647.81;;;3.59;97.21
81913;BME280;71377;50.698;7.164;2024-03-07T04:27:54;101650.34;;;3.53;96.50
81913;BME280;71377;50.698;7.164;2024-03-07T04:30:21;101653.88;;;3.61;96.20
81913;BME280;71377;50.698;7.164;2024-03-07T04:32:48;101647.97;;;3.78;96.32
81913;BME280;71377;50.698;7.164;2024-03-07T04:35:14;101649.69;;;3.76;96.21
81913;BME280;71377;50.698;7.164;2024-03-07T04:37:45;101647.97;;;3.75;95.69
81913;BME280;71377;50.698;7.164;2024-03-07T04:40:12;101648.81;;;3.74;95.70
81913;BME280;71377;50.698;7.164;2024-03-07T04:42:46;101644.50;;;3.77;96.87
81913;BME280;71377;50.698;7.164;2024-03-07T04:45:13;101645.41;;;3.81;96.57
81913;BME280;71377;50.698;7.164;2024-03-07T04:47:40;101637.59;;;3.78;95.25
81913;BME280;71377;50.698;7.164;2024-03-07T04:50:11;101633.25;;;3.80;95.99
81913;BME280;71377;50.698;7.164;2024-03-07T04:52:39;101642.03;;;3.91;95.63
81913;BME280;71377;50.698;7.164;2024-03-07T04:55:06;101642.84;;;3.85;96.00
81913;BME280;71377;50.698;7.164;2024-03-07T04:57:42;101644.59;;;3.89;95.31
81913;BME280;71377;50.698;7.164;2024-03-07T05:00:10;101640.25;;;3.87;95.76
81913;BME280;71377;50.698;7.164;2024-03-07T05:02:41;101647.25;;;3.94;94.94
81913;BME280;71377;50.698;7.164;2024-03-07T05:05:08;101642.91;;;3.94;95.59
81913;BME280;71377;50.698;7.164;2024-03-07T05:07:35;101647.34;;;4.08;94.73
81913;BME280;71377;50.698;7.164;2024-03-07T05:10:03;101645.59;;;4.08;93.64
81913;BME280;71377;50.698;7.164;2024-03-07T05:12:31;101651.72;;;4.16;93.84
81913;BME280;71377;50.698;7.164;2024-03-07T05:14:58;101643.97;;;4.19;94.17
81913;BME280;71377;50.698;7.164;2024-03-07T05:17:24;101652.59;;;4.15;94.36
81913;BME280;71377;50.698;7.164;2024-03-07T05:19:51;101649.13;;;4.10;94.38
81913;BME280;71377;50.698;7.164;2024-03-07T05:22:17;101642.19;;;4.17;95.03
81913;BME280;71377;50.698;7.164;2024-03-07T05:24:44;101646.50;;;4.10;95.38
81913;BME280;71377;50.698;7.164;2024-03-07T05:27:11;101651.72;;;4.10;95.15
81913;BME280;71377;50.698;7.164;2024-03-07T05:29:38;101649.06;;;4.07;95.08
81913;BME280;71377;50.698;7.164;2024-03-07T05:32:24;101647.41;;;4.15;94.93
81913;BME280;71377;50.698;7.164;2024-03-07T05:34:52;101644.00;;;4.22;95.20
81913;BME280;71377;50.698;7.164;2024-03-07T05:37:22;101653.47;;;4.13;95.25
81913;BME280;71377;50.698;7.164;2024-03-07T05:39:50;101648.31;;;4.22;95.33
81913;BME280;71377;50.698;7.164;2024-03-07T05:42:16;101644.91;;;4.28;95.06
81913;BME280;71377;50.698;7.164;2024-03-07T05:44:43;101647.47;;;4.24;95.56
81913;BME280;71377;50.698;7.164;2024-03-07T05:47:10;101651.78;;;4.22;95.96
81913;BME280;71377;50.698;7.164;2024-03-07T05:49:39;101654.38;;;4.21;95.70
81913;BME280;71377;50.698;7.164;2024-03-07T05:52:06;101648.31;;;4.23;96.21
81913;BME280;71377;50.698;7.164;2024-03-07T05:54:33;101646.59;;;4.21;96.55
81913;BME280;71377;50.698;7.164;2024-03-07T05:57:00;101650.09;;;4.29;96.57
81913;BME280;71377;50.698;7.164;2024-03-07T05:59:26;101644.09;;;4.41;96.00
81913;BME280;71377;50.698;7.164;2024-03-07T06:01:59;101644.09;;;4.41;95.84
81913;BME280;71377;50.698;7.164;2024-03-07T06:04:26;101646.69;;;4.39;96.77
81913;BME280;71377;50.698;7.164;2024-03-07T06:06:52;101649.41;;;4.59;96.23
81913;BME280;71377;50.698;7.164;2024-03-07T06:09:19;101643.31;;;4.54;96.44
81913;BME280;71377;50.698;7.164;2024-03-07T06:11:48;101639.00;;;4.54;96.52
81913;BME280;71377;50.698;7.164;2024-03-07T06:14:15;101649.44;;;4.62;95.96
81913;BME280;71377;50.698;7.164;2024-03-07T06:16:42;101640.66;;;4.45;97.22
81913;BME280;71377;50.698;7.164;2024-03-07T06:19:09;101646.78;;;4.56;96.98
81913;BME280;71377;50.698;7.164;2024-03-07T06:21:40;101648.53;;;4.57;96.56
81913;BME280;71377;50.698;7.164;2024-03-07T06:24:07;101645.97;;;4.63;96.92
81913;BME280;71377;50.698;7.164;2024-03-07T06:26:36;101641.72;;;4.80;96.11
81913;BME280;71377;50.698;7.164;2024-03-07T06:29:04;101646.03;;;4.74;95.41
81913;BME280;71377;50.698;7.164;2024-03-07T06:31:34;101644.34;;;4.93;95.09
81913;BME280;71377;50.698;7.164;2024-03-07T06:34:04;101646.09;;;4.89;94.99
81913;BME280;71377;50.698;7.164;2024-03-07T06:36:30;101650.41;;;4.84;94.74
81913;BME280;71377;50.698;7.164;2024-03-07T06:38:57;101647.78;;;4.84;95.93
81913;BME280;71377;50.698;7.164;2024-03-07T06:41:23;101648.69;;;4.91;96.22
81913;BME280;71377;50.698;7.164;2024-03-07T06:43:51;101653.97;;;5.04;94.32
81913;BME280;71377;50.698;7.164;2024-03-07T06:46:19;101653.97;;;5.12;94.66
81913;BME280;71377;50.698;7.164;2024-03-07T06:48:46;101654.88;;;5.28;93.37
81913;BME280;71377;50.698;7.164;2024-03-07T06:51:12;101647.94;;;5.22;92.49
81913;BME280;71377;50.698;7.164;2024-03-07T06:53:39;101649.66;;;5.17;93.49
81913;BME280;71377;50.698;7.164;2024-03-07T06:56:06;101645.38;;;5.47;93.67
81913;BME280;71377;50.698;7.164;2024-03-07T06:58:35;101651.47;;;5.55;94.07
81913;BME280;71377;50.698;7.164;2024-03-07T07:01:02;101642.81;;;5.71;91.34
81913;BME280;71377;50.698;7.164;2024-03-07T07:03:33;101646.28;;;5.81;92.44
81913;BME280;71377;50.698;7.164;2024-03-07T07:05:59;101643.69;;;5.75;91.79
81913;BME280;71377;50.698;7.164;2024-03-07T07:08:27;101643.69;;;5.87;92.53
81913;BME280;71377;50.698;7.164;2024-03-07T07:10:55;101641.09;;;5.98;90.38
81913;BME280;71377;50.698;7.164;2024-03-07T07:13:22;101642.84;;;6.05;90.85
81913;BME280;71377;50.698;7.164;2024-03-07T07:15:49;101643.72;;;5.98;92.00
81913;BME280;71377;50.698;7.164;2024-03-07T07:18:15;101637.63;;;6.26;89.94
81913;BME280;71377;50.698;7.164;2024-03-07T07:20:43;101634.06;;;6.48;88.44
81913;BME280;71377;50.698;7.164;2024-03-07T07:23:09;101643.59;;;6.69;87.12
81913;BME280;71377;50.698;7.164;2024-03-07T07:25:36;101641.00;;;6.63;87.12
81913;BME280;71377;50.698;7.164;2024-03-07T07:28:04;101639.22;;;6.67;85.60
81913;BME280;71377;50.698;7.164;2024-03-07T07:30:31;101637.47;;;6.67;86.01
81913;BME280;71377;50.698;7.164;2024-03-07T07:32:58;101636.63;;;6.71;86.87
81913;BME280;71377;50.698;7.164;2024-03-07T07:35:24;101634.00;;;6.71;86.72
81913;BME280;71377;50.698;7.164;2024-03-07T07:37:52;101633.03;;;6.95;85.55
81913;BME280;71377;50.698;7.164;2024-03-07T07:40:21;101639.22;;;6.67;86.30
81913;BME280;71377;50.698;7.164;2024-03-07T07:42:50;101634.91;;;6.60;86.84
81913;BME280;71377;50.698;7.164;2024-03-07T07:45:19;101639.28;;;6.61;85.16
81913;BME280;71377;50.698;7.164;2024-03-07T07:47:48;101633.16;;;6.60;84.83
81913;BME280;71377;50.698;7.164;2024-03-07T07:50:24;101628.78;;;6.73;84.80
81913;BME280;71377;50.698;7.164;2024-03-07T07:52:53;101633.03;;;6.94;83.59
81913;BME280;71377;50.698;7.164;2024-03-07T07:55:21;101633.03;;;6.94;82.83
81913;BME280;71377;50.698;7.164;2024-03-07T07:57:56;101630.34;;;7.09;80.09
81913;BME280;71377;50.698;7.164;2024-03-07T08:00:27;101625.94;;;7.17;76.91
81913;BME280;71377;50.698;7.164;2024-03-07T08:03:00;101623.38;;;7.13;78.47
81913;BME280;71377;50.698;7.164;2024-03-07T08:05:29;101618.94;;;7.25;75.73
81913;BME280;71377;50.698;7.164;2024-03-07T08:07:58;101629.34;;;7.33;75.80
81913;BME280;71377;50.698;7.164;2024-03-07T08:10:26;101622.16;;;7.65;74.41
81913;BME280;71377;50.698;7.164;2024-03-07T08:12:58;101622.16;;;7.62;74.16
81913;BME280;71377;50.698;7.164;2024-03-07T08:15:26;101622.13;;;7.69;72.96
81913;BME280;71377;50.698;7.164;2024-03-07T08:17:54;101623.78;;;7.79;72.84
81913;BME280;71377;50.698;7.164;2024-03-07T08:20:22;101620.31;;;7.77;72.32
81913;BME280;71377;50.698;7.164;2024-03-07T08:22:50;101619.28;;;7.96;71.01
81913;BME280;71377;50.698;7.164;2024-03-07T08:25:21;101619.22;;;8.02;69.97
81913;BME280;71377;50.698;7.164;2024-03-07T08:27:51;101620.19;;;7.93;70.86
81913;BME280;71377;50.698;7.164;2024-03-07T08:30:18;101616.47;;;8.17;68.61
81913;BME280;71377;50.698;7.164;2024-03-07T08:32:49;101615.50;;;8.28;66.26
81913;BME280;71377;50.698;7.164;2024-03-07T08:35:16;101620.78;;;8.21;66.26
81913;BME280;71377;50.698;7.164;2024-03-07T08:37:45;101622.13;;;8.62;65.11
81913;BME280;71377;50.698;7.164;2024-03-07T08:40:12;101608.38;;;8.42;63.88
81913;BME280;71377;50.698;7.164;2024-03-07T08:42:49;101607.22;;;8.67;63.99
81913;BME280;71377;50.698;7.164;2024-03-07T08:45:18;101601.88;;;8.78;60.33
81913;BME280;71377;50.698;7.164;2024-03-07T08:47:50;101604.53;;;8.73;60.66
81913;BME280;71377;50.698;7.164;2024-03-07T08:50:18;101613.09;;;8.88;58.23
81913;BME280;71377;50.698;7.164;2024-03-07T08:52:45;101604.91;;;8.43;58.81
81913;BME280;71377;50.698;7.164;2024-03-07T08:55:13;101608.25;;;8.54;60.44
81913;BME280;71377;50.698;7.164;2024-03-07T08:57:41;101617.00;;;8.53;59.37
81913;BME280;71377;50.698;7.164;2024-03-07T09:00:08;101609.31;;;8.38;59.06
81913;BME280;71377;50.698;7.164;2024-03-07T09:02:38;101617.13;;;8.39;59.67
81913;BME280;71377;50.698;7.164;2024-03-07T09:05:05;101612.66;;;8.49;59.99
81913;BME280;71377;50.698;7.164;2024-03-07T09:07:32;101613.44;;;8.60;59.79
81913;BME280;71377;50.698;7.164;2024-03-07T09:09:58;101618.34;;;8.85;59.40
81913;BME280;71377;50.698;7.164;2024-03-07T09:12:25;101611.66;;;8.59;59.05
81913;BME280;71377;50.698;7.164;2024-03-07T09:14:52;101608.00;;;8.74;58.50
81913;BME280;71377;50.698;7.164;2024-03-07T09:17:20;101614.13;;;8.73;58.80
81913;BME280;71377;50.698;7.164;2024-03-07T09:19:46;101609.75;;;8.75;58.29
81913;BME280;71377;50.698;7.164;2024-03-07T09:22:13;101606.97;;;8.89;57.81
81913;BME280;71377;50.698;7.164;2024-03-07T09:24:39;101606.31;;;8.71;58.93
81913;BME280;71377;50.698;7.164;2024-03-07T09:27:06;101611.19;;;8.99;58.95
81913;BME280;71377;50.698;7.164;2024-03-07T09:29:32;101612.50;;;9.30;56.14
81913;BME280;71377;50.698;7.164;2024-03-07T09:31:59;101605.75;;;9.14;57.59
81913;BME280;71377;50.698;7.164;2024-03-07T09:34:26;101599.63;;;9.15;57.02
81913;BME280;71377;50.698;7.164;2024-03-07T09:36:52;101597.81;;;9.19;56.13
81913;BME280;71377;50.698;7.164;2024-03-07T09:39:18;101605.50;;;9.29;55.70
81913;BME280;71377;50.698;7.164;2024-03-07T09:41:45;101607.31;;;9.26;56.66
81913;BME280;71377;50.698;7.164;2024-03-07T09:44:15;101606.38;;;9.31;56.77
81913;BME280;71377;50.698;7.164;2024-03-07T09:46:55;101593.38;;;9.24;56.44
81913;BME280;71377;50.698;7.164;2024-03-07T09:49:25;101603.16;;;9.11;55.92
81913;BME280;71377;50.698;7.164;2024-03-07T09:51:55;101594.94;;;9.35;54.96
81913;BME280;71377;50.698;7.164;2024-03-07T09:54:23;101597.47;;;9.42;55.38
81913;BME280;71377;50.698;7.164;2024-03-07T09:56:53;101586.72;;;9.58;55.01
81913;BME280;71377;50.698;7.164;2024-03-07T09:59:20;101583.97;;;9.66;54.68
81913;BME280;71377;50.698;7.164;2024-03-07T10:01:51;101587.03;;;9.93;53.27
81913;BME280;71377;50.698;7.164;2024-03-07T10:04:29;101581.72;;;9.96;51.94
81913;BME280;71377;50.698;7.164;2024-03-07T10:06:57;101584.72;;;10.25;52.37
81913;BME280;71377;50.698;7.164;2024-03-07T10:09:23;101590.66;;;10.35;52.64
81913;BME280;71377;50.698;7.164;2024-03-07T10:12:00;101578.91;;;10.05;51.92
81913;BME280;71377;50.698;7.164;2024-03-07T10:14:32;101578.22;;;9.95;52.39
81913;BME280;71377;50.698;7.164;2024-03-07T10:16:58;101566.63;;;10.08;52.24
81913;BME280;71377;50.698;7.164;2024-03-07T10:19:24;101561.06;;;10.27;52.46
81913;BME280;71377;50.698;7.164;2024-03-07T10:21:51;101562.69;;;10.74;51.35
81913;BME280;71377;50.698;7.164;2024-03-07T10:24:24;101549.81;;;11.02;49.91
81913;BME280;71377;50.698;7.164;2024-03-07T10:26:50;101549.72;;;11.07;49.41
81913;BME280;71377;50.698;7.164;2024-03-07T10:29:17;101548.41;;;10.87;49.88
81913;BME280;71377;50.698;7.164;2024-03-07T10:31:44;101553.59;;;10.48;50.19
81913;BME280;71377;50.698;7.164;2024-03-07T10:34:33;101551.13;;;10.42;50.99
81913;BME280;71377;50.698;7.164;2024-03-07T10:37:00;101538.69;;;10.49;51.48
81913;BME280;71377;50.698;7.164;2024-03-07T10:39:30;101552.28;;;10.28;51.71
81913;BME280;71377;50.698;7.164;2024-03-07T10:42:00;101548.03;;;10.19;52.66
81913;BME280;71377;50.698;7.164;2024-03-07T10:44:32;101545.09;;;10.36;51.53
81913;BME280;71377;50.698;7.164;2024-03-07T10:47:05;101542.50;;;10.76;51.01
81913;BME280;71377;50.698;7.164;2024-03-07T10:49:36;101543.06;;;10.90;50.65
81913;BME280;71377;50.698;7.164;2024-03-07T10:52:12;101540.50;;;11.26;48.91
81913;BME280;71377;50.698;7.164;2024-03-07T10:54:48;101540.63;;;11.20;50.50
81913;BME280;71377;50.698;7.164;2024-03-07T10:57:49;101536.28;;;11.54;50.31
81913;BME280;71377;50.698;7.164;2024-03-07T11:00:17;101538.84;;;11.22;51.28
81913;BME280;71377;50.698;7.164;2024-03-07T11:03:03;101527.34;;;11.61;49.28
81913;BME280;71377;50.698;7.164;2024-03-07T11:05:34;101526.38;;;11.66;50.39
81913;BME280;71377;50.698;7.164;2024-03-07T11:08:02;101522.06;;;11.61;50.04
81913;BME280;71377;50.698;7.164;2024-03-07T11:10:34;101513.25;;;11.64;49.84
81913;BME280;71377;50.698;7.164;2024-03-07T11:13:02;101518.94;;;11.47;50.56
81913;BME280;71377;50.698;7.164;2024-03-07T11:15:29;101509.72;;;11.64;49.66
81913;BME280;71377;50.698;7.164;2024-03-07T11:17:57;101527.34;;;11.61;49.30
81913;BME280;71377;50.698;7.164;2024-03-07T11:20:26;101511.69;;;11.21;49.75
81913;BME280;71377;50.698;7.164;2024-03-07T11:22:53;101514.97;;;11.31;49.91
81913;BME280;71377;50.698;7.164;2024-03-07T11:25:23;101516.59;;;11.35;50.24
81913;BME280;71377;50.698;7.164;2024-03-07T11:27:57;101498.78;;;11.11;50.46
81913;BME280;71377;50.698;7.164;2024-03-07T11:30:24;101504.53;;;11.26;50.21
81913;BME280;71377;50.698;7.164;2024-03-07T11:32:52;101495.13;;;11.52;49.62
81913;BME280;71377;50.698;7.164;2024-03-07T11:35:33;101490.75;;;11.86;49.24
81913;BME280;71377;50.698;7.164;2024-03-07T11:38:06;101486.50;;;11.79;48.92
81913;BME280;71377;50.698;7.164;2024-03-07T11:43:00;101475.22;;;11.76;48.55
81913;BME280;71377;50.698;7.164;2024-03-07T11:45:31;101474.75;;;11.94;48.44
81913;BME280;71377;50.698;7.164;2024-03-07T11:48:05;101471.81;;;11.71;49.08
81913;BME280;71377;50.698;7.164;2024-03-07T11:50:37;101483.66;;;11.54;49.23
81913;BME280;71377;50.698;7.164;2024-03-07T11:53:05;101463.94;;;11.38;49.57
81913;BME280;71377;50.698;7.164;2024-03-07T11:55:36;101467.03;;;11.52;49.25
81913;BME280;71377;50.698;7.164;2024-03-07T11:58:13;101465.56;;;12.09;48.66
81913;BME280;71377;50.698;7.164;2024-03-07T12:00:44;101459.16;;;12.18;47.98
81913;BME280;71377;50.698;7.164;2024-03-07T12:03:15;101455.63;;;12.19;47.79
81913;BME280;71377;50.698;7.164;2024-03-07T12:05:48;101451.59;;;12.64;47.14
81913;BME280;71377;50.698;7.164;2024-03-07T12:08:15;101451.81;;;12.85;46.77
81913;BME280;71377;50.698;7.164;2024-03-07T12:10:42;101446.28;;;13.20;46.43
81913;BME280;71377;50.698;7.164;2024-03-07T12:13:14;101445.44;;;13.18;45.60
81913;BME280;71377;50.698;7.164;2024-03-07T12:15:46;101438.09;;;13.01;45.61
81913;BME280;71377;50.698;7.164;2024-03-07T12:18:13;101445.41;;;13.46;45.18
81913;BME280;71377;50.698;7.164;2024-03-07T12:20:44;101435.81;;;13.94;43.72
81913;BME280;71377;50.698;7.164;2024-03-07T12:23:17;101436.72;;;14.63;42.54
81913;BME280;71377;50.698;7.164;2024-03-07T12:25:46;101427.94;;;14.15;42.94
81913;BME280;71377;50.698;7.164;2024-03-07T12:28:13;101424.69;;;14.09;43.47
81913;BME280;71377;50.698;7.164;2024-03-07T12:30:47;101419.91;;;13.95;43.75
81913;BME280;71377;50.698;7.164;2024-03-07T12:33:17;101419.47;;;13.59;44.49
81913;BME280;71377;50.698;7.164;2024-03-07T12:35:46;101411.53;;;13.34;44.78
81913;BME280;71377;50.698;7.164;2024-03-07T12:38:13;101409.81;;;13.33;45.22
81913;BME280;71377;50.698;7.164;2024-03-07T12:40:42;101406.63;;;14.20;43.40
81913;BME280;71377;50.698;7.164;2024-03-07T12:43:19;101405.00;;;14.63;41.89
81913;BME280;71377;50.698;7.164;2024-03-07T12:45:51;101401.47;;;14.84;41.52
81913;BME280;71377;50.698;7.164;2024-03-07T12:48:18;101389.63;;;14.73;41.31
81913;BME280;71377;50.698;7.164;2024-03-07T12:50:48;101389.50;;;14.54;42.22
81913;BME280;71377;50.698;7.164;2024-03-07T12:53:22;101386.34;;;14.66;41.66
81913;BME280;71377;50.698;7.164;2024-03-07T12:55:50;101383.19;;;14.34;42.19
81913;BME280;71377;50.698;7.164;2024-03-07T12:58:18;101385.72;;;14.37;41.88
81913;BME280;71377;50.698;7.164;2024-03-07T13:00:56;101378.16;;;14.05;42.83
81913;BME280;71377;50.698;7.164;2024-03-07T13:03:24;101384.03;;;14.80;40.84
81913;BME280;71377;50.698;7.164;2024-03-07T13:05:57;101384.81;;;15.24;40.03